Albuquerque, NM (87111)

4:34 PM MDT on August 31, 2015 (GMT -0600)
Oso Redondo Neighborhood | | Change Station
CLOSE
Current Station
Personal Weather Station
Location: Albuquerque, NM
Elevation: 5690 ft
Nearby Weather Stations

Elev 5690 ft 35.14 °N, 106.52 °W | Updated 4 minutes ago

Partly Cloudy
Partly Cloudy
92.1 °F
Feels Like 89 °F
N
4.0
Wind Variable Wind from WNW
Gusts 7.0 mph

Today
High -- | Low -- °F
--% Chance of Precip.
Yesterday
High -- | Low -- °F
Precip. -- in
6:37 AM 7:34 PM
Waning Gibbous, 93% visible
Pressure 30.08 in
Visibility 10.0 miles
Clouds Scattered Clouds 10000 ft
Mostly Cloudy 13000 ft
Mostly Cloudy 25000 ft
Heat Index 89 °F
Dew Point 51 °F
Humidity 25%
Rainfall 0.00 in
Snow Depth Not available.
UV 2.7 out of 12
Pollen 7.40 out of 12
Air Quality Not available.
Flu Activity Not available.
SPECI KABQ 312213Z 23006KT 10SM TS SCT100CB BKN130 BKN250 31/06 A3008 RMK AO2 TSB13 TS SW MOV NE VCSH SW T03060056 $
Pressure 30.08 in
Visibility 10.0 miles
Clouds Scattered Clouds 10000 ft
Mostly Cloudy 13000 ft
Mostly Cloudy 25000 ft
Heat Index 89 °F
Dew Point 51 °F
Humidity 25%
Rainfall 0.00 in
Snow Depth Not available.
UV 2.7 out of 12
Pollen 7.40 out of 12
Air Quality Not available.
Flu Activity Not available.
SPECI KABQ 312213Z 23006KT 10SM TS SCT100CB BKN130 BKN250 31/06 A3008 RMK AO2 TSB13 TS SW MOV NE VCSH SW T03060056 $

10-Day Weather Forecast

×

Almanac

Astronomy

Aug. 31, 2015 Rise Set
Actual Time
Civil Twilight
Nautical Twilight
Astronomical Twilight
Moon
Length of Visible Light
Length of Day
Tomorrow will be .
, % of the Moon is Illuminated

Today's Extremes

State Highs State Lows

Community

WunderPhotos

Upload Photos

1,851,390 photos uploaded!

WunderBlogs® & News

Nearby

Air Quality

  Air Quality AQ Index Pollutant
Not available.

Snow Depth

Station Depth Elevation

Earthquake Activity

City Distance Mag. Time & Date
Minimum magnitude displayed is 2.5.

Coastal Water Temperatures

Place Temperature

Stations

Nearby Weather Stations

Station Location Temp. Windchill Dew Point Humidity Wind Precip. Elev Updated Type